D56 weather

Mayville Municipal Airport
Mayville, North Dakota, United States

Public forecast

Using degrees Fahrenheit for public forecast. Weather courtesy of forecast.io.

Closest aviation weather report (METAR) to Mayville Municipal Airport

Closest report is Grand Forks International Airport, 29.2 nm (54.0 km) NNE. Retrieved 2020/02/17 14:53 UTC (9 minutes ago):

KGFK 171453Z 34006KT 10SM SCT019 BKN200 M08/M11 A2993 RMK AO2 SLP154 T10831106 53010

Closest aviation forecast (TAF) to Mayville Municipal Airport

Closest forecast is Grand Forks International Airport, 29.2 nm (54.0 km) NNE. Retrieved 2020/02/17 12:39 UTC (2 hours ago):

TAF KGFK 171136Z 1712/1812 19006KT P6SM OVC013 FM172000 33012KT P6SM BKN023 FM172200 35012KT P6SM BKN035 FM180000 35009KT P6SM BKN035